Time;durP1;ratioP1;P1;durP2;ratioP2;P2;SDS_P1;SDS_P2;PMS_P1;PMS_P2;Temp;Humidity;BMP_temperature;BMP_pressure;BME280_temperature;BME280_humidity;BME280_pressure;Samples;Min_cycle;Max_cycle;Signal;HPM_P1;HPM_P2
2023/01/19 00:01:37;;;;;;;5.17;3.07;;;6.00;99.90;;;;;;4161049;28;20111;-71
2023/01/19 00:03:38;;;;;;;3.53;2.53;;;6.00;99.90;;;;;;4161019;28;20083;-63
2023/01/19 00:05:40;;;;;;;6.80;3.00;;;6.00;99.90;;;;;;4161624;28;20087;-64
2023/01/19 00:07:42;;;;;;;3.90;3.13;;;6.00;99.90;;;;;;4159663;28;20057;-68
2023/01/19 00:09:43;;;;;;;4.60;2.63;;;6.00;99.90;;;;;;4161452;28;20083;-72
2023/01/19 00:11:44;;;;;;;3.30;2.43;;;6.00;99.90;;;;;;4159979;28;20030;-63
2023/01/19 00:13:49;;;;;;;5.33;2.20;;;6.00;99.90;;;;;;4160765;28;20025;-65
2023/01/19 00:15:50;;;;;;;3.00;2.00;;;6.00;99.90;;;;;;4160122;28;20447;-64
2023/01/19 00:17:51;;;;;;;4.97;2.33;;;6.10;99.90;;;;;;4161168;28;20076;-64
2023/01/19 00:19:52;;;;;;;5.10;2.30;;;6.10;99.90;;;;;;4160382;28;20041;-62
2023/01/19 00:21:54;;;;;;;3.27;2.30;;;6.20;99.90;;;;;;4160001;28;20501;-62
2023/01/19 00:23:55;;;;;;;3.40;2.23;;;6.20;99.90;;;;;;4161314;28;20037;-69
2023/01/19 00:25:56;;;;;;;3.33;2.00;;;6.30;99.90;;;;;;4160159;28;20041;-63
2023/01/19 00:27:57;;;;;;;2.57;2.27;;;6.30;99.90;;;;;;4161247;28;20034;-71
2023/01/19 00:29:58;;;;;;;4.80;2.40;;;6.30;99.90;;;;;;4160395;28;20099;-63
2023/01/19 00:32:00;;;;;;;3.00;2.30;;;6.40;99.90;;;;;;4161394;28;20029;-63
2023/01/19 00:34:02;;;;;;;5.13;2.37;;;6.40;99.90;;;;;;4160201;28;20080;-70
2023/01/19 00:36:04;;;;;;;2.50;1.97;;;6.30;99.90;;;;;;4161078;28;20029;-70
2023/01/19 00:38:05;;;;;;;3.00;2.63;;;6.40;99.90;;;;;;4142067;28;20144;-65
2023/01/19 00:40:07;;;;;;;3.43;2.67;;;6.30;99.90;;;;;;4164529;28;20045;-71
2023/01/19 00:44:31;;;;;;;3.37;2.20;;;6.30;99.90;;;;;;4164381;28;20485;-62
2023/01/19 00:46:32;;;;;;;4.33;1.93;;;6.30;99.90;;;;;;4162851;28;20088;-68
2023/01/19 00:48:33;;;;;;;4.00;2.77;;;6.30;99.90;;;;;;4154299;28;20751;-63
2023/01/19 00:50:34;;;;;;;4.27;2.50;;;6.30;99.90;;;;;;4163006;28;20045;-65
2023/01/19 00:52:35;;;;;;;4.27;2.60;;;6.30;99.90;;;;;;4162625;28;20053;-62
2023/01/19 00:54:37;;;;;;;3.37;2.23;;;6.30;99.90;;;;;;4146004;28;20038;-62
2023/01/19 00:56:38;;;;;;;7.07;2.70;;;6.30;99.90;;;;;;4163355;28;20473;-72
2023/01/19 00:58:39;;;;;;;2.93;2.17;;;6.30;99.90;;;;;;4163717;28;20021;-63
2023/01/19 01:00:40;;;;;;;3.90;2.33;;;6.30;99.90;;;;;;4162069;28;20108;-63
2023/01/19 01:02:43;;;;;;;3.87;2.70;;;6.30;99.90;;;;;;4163349;28;20428;-68
2023/01/19 01:04:44;;;;;;;4.43;2.87;;;6.30;99.90;;;;;;4152422;28;20029;-69
2023/01/19 01:06:45;;;;;;;3.30;2.43;;;6.30;99.90;;;;;;4163843;28;20088;-62
2023/01/19 01:08:46;;;;;;;5.40;1.90;;;6.30;99.90;;;;;;4163134;28;20029;-66
2023/01/19 01:10:47;;;;;;;3.20;2.27;;;6.30;99.90;;;;;;4164088;28;20826;-62
2023/01/19 01:12:49;;;;;;;4.67;2.47;;;6.40;99.90;;;;;;4163159;28;20046;-63
2023/01/19 01:14:50;;;;;;;2.93;2.10;;;6.40;99.90;;;;;;4163875;28;20029;-62
2023/01/19 01:16:51;;;;;;;3.77;2.30;;;6.30;99.90;;;;;;4162557;28;20083;-63
2023/01/19 01:18:52;;;;;;;2.80;2.43;;;6.30;99.90;;;;;;4164425;28;20033;-63
2023/01/19 01:21:03;;;;;;;5.47;2.50;;;6.30;99.90;;;;;;4161493;28;20037;-62
2023/01/19 01:23:04;;;;;;;3.17;2.40;;;6.40;99.90;;;;;;4163194;28;20046;-65
2023/01/19 01:25:06;;;;;;;3.63;2.47;;;6.50;99.90;;;;;;4163136;28;20029;-63
2023/01/19 01:27:07;;;;;;;3.80;2.67;;;6.50;99.90;;;;;;4162884;28;20041;-63
2023/01/19 01:29:08;;;;;;;4.73;2.77;;;6.50;99.90;;;;;;4162820;28;20834;-69
2023/01/19 01:31:09;;;;;;;5.33;2.47;;;6.50;99.90;;;;;;4162198;28;20099;-65
2023/01/19 01:33:11;;;;;;;3.37;2.60;;;6.50;99.90;;;;;;4163282;28;20049;-63
2023/01/19 01:35:13;;;;;;;2.10;1.90;;;6.50;99.90;;;;;;4162647;28;20060;-63
2023/01/19 01:37:14;;;;;;;4.20;2.20;;;6.50;99.90;;;;;;4163536;28;20033;-69
2023/01/19 01:39:15;;;;;;;3.83;2.73;;;6.50;99.90;;;;;;4162475;28;20037;-63
2023/01/19 01:41:16;;;;;;;4.50;2.40;;;6.50;99.90;;;;;;4163939;28;20037;-63
2023/01/19 01:43:19;;;;;;;4.40;2.57;;;6.50;99.90;;;;;;4162158;28;20092;-64
2023/01/19 01:45:39;;;;;;;3.17;2.37;;;6.50;99.90;;;;;;4163240;28;20037;-63
2023/01/19 01:47:47;;;;;;;3.00;2.27;;;6.60;99.90;;;;;;4161203;28;20061;-63
2023/01/19 01:49:52;;;;;;;5.20;2.57;;;6.70;99.90;;;;;;4162483;28;20045;-65
2023/01/19 01:51:54;;;;;;;3.07;2.43;;;6.70;99.90;;;;;;4144489;28;20220;-65
2023/01/19 01:54:13;;;;;;;4.67;2.40;;;6.70;99.90;;;;;;4162664;28;20050;-63
2023/01/19 01:56:19;;;;;;;3.43;2.67;;;6.70;99.90;;;;;;4162303;28;20076;-63
2023/01/19 01:58:21;;;;;;;4.23;3.10;;;6.70;99.90;;;;;;4163272;28;20041;-64
2023/01/19 02:00:24;;;;;;;5.40;3.57;;;6.60;99.90;;;;;;4162153;28;20551;-64
2023/01/19 02:04:56;;;;;;;5.33;3.30;;;6.40;99.90;;;;;;4161438;28;20025;-63
2023/01/19 02:13:57;;;;;;;3.97;2.60;;;6.20;99.90;;;;;;4161908;28;20038;-63
2023/01/19 02:16:01;;;;;;;4.53;3.10;;;6.10;99.90;;;;;;4162682;28;20029;-63
2023/01/19 02:18:03;;;;;;;4.77;2.80;;;6.10;99.90;;;;;;4161957;28;20084;-65
2023/01/19 02:20:04;;;;;;;8.77;4.23;;;6.10;99.90;;;;;;4163204;28;20482;-64
2023/01/19 02:22:34;;;;;;;5.07;3.60;;;6.10;99.90;;;;;;4161886;28;20087;-66
2023/01/19 02:24:36;;;;;;;6.18;3.55;;;6.00;99.90;;;;;;4162735;28;20084;-64
2023/01/19 02:26:41;;;;;;;5.13;3.00;;;6.00;99.90;;;;;;4161967;28;20472;-64
2023/01/19 02:28:49;;;;;;;4.07;3.00;;;6.00;99.90;;;;;;4162857;28;20056;-63
2023/01/19 02:30:50;;;;;;;6.17;3.60;;;5.90;99.90;;;;;;4161667;28;20388;-63
2023/01/19 02:32:52;;;;;;;4.83;3.27;;;5.90;99.90;;;;;;4162888;28;20076;-63
2023/01/19 02:34:53;;;;;;;4.90;3.50;;;5.90;99.90;;;;;;4161534;28;20080;-67
2023/01/19 02:37:05;;;;;;;4.33;3.33;;;5.90;99.90;;;;;;4162477;28;20029;-62
2023/01/19 02:39:08;;;;;;;5.00;3.33;;;5.90;99.90;;;;;;4161537;28;20041;-66
2023/01/19 02:41:14;;;;;;;4.90;3.33;;;5.80;99.90;;;;;;4146645;28;20092;-72
2023/01/19 02:43:18;;;;;;;5.57;3.30;;;5.90;99.90;;;;;;4160513;28;20046;-68
2023/01/19 02:45:21;;;;;;;6.57;3.83;;;5.90;99.90;;;;;;4161676;28;20045;-72
2023/01/19 02:47:23;;;;;;;5.03;3.83;;;5.90;99.90;;;;;;4160356;28;20057;-63
2023/01/19 02:49:28;;;;;;;5.87;4.07;;;5.90;99.90;;;;;;4162472;28;20029;-63
2023/01/19 02:51:29;;;;;;;8.63;3.40;;;5.80;99.90;;;;;;4161852;28;20017;-70
2023/01/19 02:53:33;;;;;;;12.23;4.23;;;5.80;99.90;;;;;;4161391;28;20428;-62
2023/01/19 02:55:35;;;;;;;6.27;3.83;;;5.80;99.90;;;;;;4161727;28;20068;-63
2023/01/19 02:58:03;;;;;;;6.23;3.63;;;5.80;99.90;;;;;;4161449;28;20084;-63
2023/01/19 03:00:16;;;;;;;5.70;3.33;;;5.80;99.90;;;;;;4143073;28;20041;-64
2023/01/19 03:02:36;;;;;;;6.63;3.97;;;5.80;99.90;;;;;;4161943;28;20026;-72
2023/01/19 03:04:43;;;;;;;4.38;3.35;;;5.70;99.90;;;;;;4161463;28;20022;-63
2023/01/19 03:07:00;;;;;;;4.93;3.30;;;5.70;99.90;;;;;;4161500;28;20091;-67
2023/01/19 03:09:10;;;;;;;6.20;3.97;;;5.70;99.90;;;;;;4159539;28;20452;-63
2023/01/19 03:11:12;;;;;;;5.33;3.80;;;5.70;99.90;;;;;;4161828;28;20037;-67
2023/01/19 03:13:46;;;;;;;6.53;4.20;;;5.70;99.90;;;;;;4161289;28;20111;-63
2023/01/19 03:16:08;;;;;;;4.83;3.67;;;5.60;99.90;;;;;;4161115;28;20099;-69
2023/01/19 03:18:13;;;;;;;8.13;3.87;;;5.60;99.90;;;;;;4161030;28;20087;-64
2023/01/19 03:20:21;;;;;;;6.30;4.13;;;5.60;99.90;;;;;;4162228;28;20989;-64
2023/01/19 03:22:27;;;;;;;8.87;4.07;;;5.60;99.90;;;;;;4160217;28;20519;-63
2023/01/19 03:24:33;;;;;;;6.57;4.27;;;5.60;99.90;;;;;;4161481;28;20342;-62
2023/01/19 03:26:42;;;;;;;7.80;4.10;;;5.60;99.90;;;;;;4159931;28;20099;-70
2023/01/19 03:28:46;;;;;;;9.80;5.13;;;5.60;99.90;;;;;;4161684;28;20038;-64
2023/01/19 03:30:58;;;;;;;9.87;4.93;;;5.50;99.90;;;;;;4160390;28;20033;-63
2023/01/19 03:33:06;;;;;;;9.43;4.60;;;5.50;99.90;;;;;;4161698;28;20021;-64
2023/01/19 03:35:13;;;;;;;10.13;5.77;;;5.40;99.90;;;;;;4160744;28;20037;-63
2023/01/19 03:37:16;;;;;;;9.10;5.17;;;5.30;99.90;;;;;;4161558;28;20040;-64
2023/01/19 03:39:22;;;;;;;9.87;5.67;;;5.30;99.90;;;;;;4160771;28;20022;-64
2023/01/19 03:41:26;;;;;;;8.87;5.60;;;5.30;99.90;;;;;;4161229;28;20029;-70
2023/01/19 03:43:29;;;;;;;8.23;5.73;;;5.30;99.90;;;;;;4159830;28;20298;-63
2023/01/19 03:45:32;;;;;;;7.53;4.83;;;5.30;99.90;;;;;;4160802;28;20026;-63
2023/01/19 03:47:35;;;;;;;10.13;5.43;;;5.30;99.90;;;;;;4160884;28;20479;-66
2023/01/19 03:49:38;;;;;;;7.03;4.33;;;5.40;99.90;;;;;;4160348;28;20352;-64
2023/01/19 03:51:39;;;;;;;10.27;5.20;;;5.40;99.90;;;;;;4161249;28;20080;-69
2023/01/19 03:53:41;;;;;;;9.27;5.87;;;5.40;99.90;;;;;;4160488;28;20087;-67
2023/01/19 03:55:46;;;;;;;10.63;6.10;;;5.30;99.90;;;;;;4162017;28;20099;-67
2023/01/19 03:57:47;;;;;;;7.43;5.10;;;5.30;99.90;;;;;;4160333;28;20025;-65
2023/01/19 03:59:48;;;;;;;10.73;6.50;;;5.30;99.90;;;;;;4161225;28;20286;-71
2023/01/19 04:01:49;;;;;;;9.87;5.23;;;5.30;99.90;;;;;;4160236;28;20110;-72
2023/01/19 04:03:51;;;;;;;11.43;6.30;;;5.30;99.90;;;;;;4161447;28;20812;-64
2023/01/19 04:05:55;;;;;;;7.83;5.53;;;5.30;99.90;;;;;;4160247;28;20279;-68
2023/01/19 04:07:56;;;;;;;10.03;6.30;;;5.20;99.90;;;;;;4161595;28;20282;-62
2023/01/19 04:09:57;;;;;;;9.97;6.60;;;5.30;99.90;;;;;;4160011;28;20797;-65
2023/01/19 04:12:00;;;;;;;11.77;6.90;;;5.20;99.90;;;;;;4159607;28;20037;-70
2023/01/19 04:14:01;;;;;;;14.00;7.07;;;5.30;99.90;;;;;;4155937;28;20804;-64
2023/01/19 04:16:03;;;;;;;12.90;6.20;;;5.30;99.90;;;;;;4181154;28;20451;-72
2023/01/19 04:18:05;;;;;;;11.10;5.47;;;5.30;99.90;;;;;;4165796;28;20255;-70
2023/01/19 04:20:08;;;;;;;11.90;6.10;;;5.30;99.90;;;;;;4165825;28;20742;-65
2023/01/19 04:22:09;;;;;;;11.90;6.47;;;5.40;99.90;;;;;;4165765;28;20308;-63
2023/01/19 04:24:10;;;;;;;11.80;6.20;;;5.30;99.90;;;;;;4165681;28;20071;-64
2023/01/19 04:26:12;;;;;;;14.17;6.23;;;5.30;99.90;;;;;;4165394;28;20362;-70
2023/01/19 04:28:13;;;;;;;12.70;6.73;;;5.30;99.90;;;;;;4165307;28;20038;-65
2023/01/19 04:30:15;;;;;;;10.00;6.83;;;5.30;99.90;;;;;;4166663;28;20037;-64
2023/01/19 04:32:17;;;;;;;10.33;5.73;;;5.30;99.90;;;;;;4165588;28;20267;-63
2023/01/19 04:34:18;;;;;;;11.63;6.23;;;5.30;99.90;;;;;;4166232;28;20041;-64
2023/01/19 04:36:19;;;;;;;10.23;6.30;;;5.30;99.90;;;;;;4165021;28;20095;-71
2023/01/19 04:38:21;;;;;;;8.30;5.77;;;5.30;99.90;;;;;;4166144;28;20278;-64
2023/01/19 04:40:22;;;;;;;10.43;5.93;;;5.30;99.90;;;;;;4164881;28;20729;-62
2023/01/19 04:42:23;;;;;;;9.43;5.63;;;5.20;99.90;;;;;;4166514;28;20083;-64
2023/01/19 04:44:24;;;;;;;9.40;5.50;;;5.30;99.90;;;;;;4165196;28;20275;-64
2023/01/19 04:46:26;;;;;;;6.53;4.80;;;5.30;99.90;;;;;;4166348;28;20328;-66
2023/01/19 04:48:27;;;;;;;9.70;5.40;;;5.40;99.90;;;;;;4165450;28;20045;-64
2023/01/19 04:50:28;;;;;;;10.93;5.63;;;5.50;99.90;;;;;;4165292;28;20037;-65
2023/01/19 04:52:36;;;;;;;9.27;5.30;;;5.60;99.90;;;;;;4164387;28;20037;-63
2023/01/19 04:54:37;;;;;;;9.93;5.97;;;5.60;99.90;;;;;;4164899;28;20104;-71
2023/01/19 04:56:39;;;;;;;10.17;6.17;;;5.60;99.90;;;;;;4147590;28;20556;-63
2023/01/19 04:58:40;;;;;;;11.00;5.00;;;5.70;99.90;;;;;;4164463;28;20352;-62
2023/01/19 05:00:42;;;;;;;9.50;5.83;;;5.70;99.90;;;;;;4165420;28;20041;-63
2023/01/19 05:02:44;;;;;;;9.13;4.73;;;5.70;99.90;;;;;;4163905;28;20102;-63
2023/01/19 05:04:45;;;;;;;6.33;3.87;;;5.80;99.90;;;;;;4166038;28;20087;-65
2023/01/19 05:06:46;;;;;;;7.53;4.27;;;5.90;99.90;;;;;;4165122;28;20084;-64
2023/01/19 05:08:47;;;;;;;9.13;5.40;;;5.90;99.90;;;;;;4165989;28;20462;-63
2023/01/19 05:10:49;;;;;;;7.93;4.63;;;5.90;99.90;;;;;;4164930;28;20067;-63
2023/01/19 05:12:50;;;;;;;11.37;6.03;;;5.90;99.90;;;;;;4165536;28;20475;-67
2023/01/19 05:14:51;;;;;;;8.67;4.80;;;5.90;99.90;;;;;;4165189;28;20029;-65
2023/01/19 05:16:52;;;;;;;8.70;5.40;;;6.00;99.90;;;;;;4165221;28;20087;-66
2023/01/19 05:18:53;;;;;;;7.97;4.53;;;6.00;99.90;;;;;;4164647;28;20120;-70
2023/01/19 05:20:55;;;;;;;7.53;4.93;;;6.00;99.90;;;;;;4164455;28;20037;-66
2023/01/19 05:22:56;;;;;;;7.50;4.97;;;6.00;99.90;;;;;;4162482;28;20784;-66
2023/01/19 05:24:57;;;;;;;9.37;6.03;;;6.10;99.90;;;;;;4161429;28;20572;-65
2023/01/19 05:26:58;;;;;;;11.13;4.27;;;6.10;99.90;;;;;;4162457;28;20505;-65
2023/01/19 05:29:00;;;;;;;8.37;3.53;;;6.10;99.90;;;;;;4161624;28;20038;-65
2023/01/19 05:31:01;;;;;;;7.80;3.50;;;6.10;99.90;;;;;;4144836;28;20038;-69
2023/01/19 05:33:02;;;;;;;5.80;4.20;;;6.20;99.90;;;;;;4160861;28;20037;-66
2023/01/19 05:35:03;;;;;;;5.53;3.23;;;6.20;99.90;;;;;;4163111;28;20042;-66
2023/01/19 05:37:04;;;;;;;5.20;2.50;;;6.10;99.90;;;;;;4162544;28;20111;-66
2023/01/19 05:39:06;;;;;;;5.77;4.30;;;6.20;99.90;;;;;;4162748;28;20037;-68
2023/01/19 05:41:07;;;;;;;14.13;7.47;;;6.30;99.90;;;;;;4162330;28;20041;-67
2023/01/19 05:43:08;;;;;;;7.97;4.70;;;6.30;99.90;;;;;;4163199;28;20390;-65
2023/01/19 05:45:10;;;;;;;5.37;3.80;;;6.30;99.90;;;;;;4162558;28;20084;-67
2023/01/19 05:47:11;;;;;;;24.77;12.83;;;6.40;99.90;;;;;;4163126;28;20417;-68
2023/01/19 05:49:13;;;;;;;15.40;8.43;;;6.40;99.90;;;;;;4161998;28;20067;-66
2023/01/19 05:51:14;;;;;;;9.67;4.90;;;6.40;99.90;;;;;;4162950;28;20079;-66
2023/01/19 05:53:16;;;;;;;7.73;4.40;;;6.50;99.90;;;;;;4162530;28;20029;-66
2023/01/19 05:55:17;;;;;;;4.67;3.47;;;6.50;99.90;;;;;;4163185;28;20025;-65
2023/01/19 05:57:18;;;;;;;5.80;4.33;;;6.50;99.90;;;;;;4162608;28;20474;-64
2023/01/19 05:59:22;;;;;;;12.83;6.07;;;6.50;99.90;;;;;;4158660;28;20087;-64
2023/01/19 06:01:24;;;;;;;9.47;6.77;;;6.50;99.90;;;;;;4161610;28;20068;-65
2023/01/19 06:03:25;;;;;;;9.43;6.67;;;6.50;99.90;;;;;;4161990;28;20477;-65
2023/01/19 06:05:26;;;;;;;11.17;7.43;;;6.50;99.90;;;;;;4158278;28;20038;-64
2023/01/19 06:07:27;;;;;;;15.13;8.77;;;6.50;99.90;;;;;;4161890;28;20025;-65
2023/01/19 06:09:28;;;;;;;15.30;9.23;;;6.50;99.90;;;;;;4161725;28;20049;-65
2023/01/19 06:11:29;;;;;;;24.37;9.77;;;6.50;99.90;;;;;;4161728;28;20099;-67
2023/01/19 06:13:30;;;;;;;14.80;9.73;;;6.50;99.90;;;;;;4162853;28;20104;-69
2023/01/19 06:15:32;;;;;;;16.13;9.30;;;6.40;99.90;;;;;;4161680;28;20030;-63
2023/01/19 06:17:33;;;;;;;16.30;9.80;;;6.40;99.90;;;;;;4161971;28;20038;-65
2023/01/19 06:19:34;;;;;;;15.83;9.27;;;6.40;99.90;;;;;;4161712;28;20037;-66
2023/01/19 06:21:35;;;;;;;25.00;12.10;;;6.40;99.90;;;;;;4159347;28;20083;-65
2023/01/19 06:23:37;;;;;;;26.60;13.90;;;6.40;99.90;;;;;;4160710;28;20029;-65
2023/01/19 06:25:38;;;;;;;28.20;15.03;;;6.40;99.90;;;;;;4161406;28;20046;-65
2023/01/19 06:27:43;;;;;;;38.47;19.77;;;6.40;99.90;;;;;;4162342;28;20037;-64
2023/01/19 06:29:44;;;;;;;48.43;26.20;;;6.40;99.90;;;;;;4154303;28;20076;-69
2023/01/19 06:31:46;;;;;;;46.53;26.77;;;6.30;99.90;;;;;;4158692;28;20489;-66
2023/01/19 06:33:47;;;;;;;58.17;33.47;;;6.40;99.90;;;;;;4159885;28;20033;-63
2023/01/19 06:35:49;;;;;;;28.13;17.93;;;6.40;99.90;;;;;;4143601;28;20355;-71
2023/01/19 06:37:52;;;;;;;46.43;22.30;;;6.40;99.90;;;;;;4159731;28;20095;-65
2023/01/19 06:39:53;;;;;;;39.03;23.10;;;6.40;99.90;;;;;;4163234;28;20471;-67
2023/01/19 06:41:54;;;;;;;35.57;21.13;;;6.50;99.90;;;;;;4164748;28;20029;-65
2023/01/19 06:43:55;;;;;;;27.20;14.90;;;6.70;99.90;;;;;;4178258;28;20134;-65
2023/01/19 06:45:57;;;;;;;28.23;18.30;;;6.80;99.90;;;;;;4166796;28;20367;-65
2023/01/19 06:47:58;;;;;;;25.47;14.90;;;7.00;99.90;;;;;;4161761;28;20042;-64
2023/01/19 06:50:00;;;;;;;22.27;13.10;;;7.10;99.90;;;;;;4161121;28;20037;-66
2023/01/19 06:52:01;;;;;;;17.17;10.13;;;7.10;99.90;;;;;;4152581;28;20072;-66
2023/01/19 06:54:03;;;;;;;20.90;12.00;;;7.10;99.90;;;;;;4145072;28;20478;-65
2023/01/19 06:56:05;;;;;;;18.80;11.07;;;7.10;99.90;;;;;;4156635;28;20073;-64
2023/01/19 06:58:07;;;;;;;20.33;10.90;;;7.10;99.90;;;;;;4160460;28;20025;-63
2023/01/19 07:00:10;;;;;;;29.97;13.47;;;7.10;99.90;;;;;;4161347;28;20059;-64
2023/01/19 07:02:12;;;;;;;25.50;15.67;;;7.10;99.90;;;;;;4161200;28;20400;-65
2023/01/19 07:04:14;;;;;;;26.17;11.17;;;7.00;99.90;;;;;;4160983;28;20060;-63
2023/01/19 07:06:15;;;;;;;20.63;11.20;;;6.90;99.90;;;;;;4161832;28;20076;-64
2023/01/19 07:08:16;;;;;;;19.90;9.70;;;6.90;99.90;;;;;;4154534;28;20120;-66
2023/01/19 07:10:18;;;;;;;16.13;8.47;;;6.80;99.90;;;;;;4158350;28;20389;-67
2023/01/19 07:12:19;;;;;;;14.23;9.03;;;6.70;99.90;;;;;;4160565;28;20033;-65
2023/01/19 07:14:20;;;;;;;18.83;9.93;;;6.60;99.90;;;;;;4161138;28;20030;-65
2023/01/19 07:16:21;;;;;;;26.33;12.27;;;6.60;99.90;;;;;;4159230;28;20033;-66
2023/01/19 07:18:22;;;;;;;25.77;14.10;;;6.60;99.90;;;;;;4161580;28;20025;-64
2023/01/19 07:20:23;;;;;;;17.87;10.50;;;6.60;99.90;;;;;;4160927;28;20092;-67
2023/01/19 07:22:25;;;;;;;29.90;15.73;;;6.60;99.90;;;;;;4172634;28;20041;-63
2023/01/19 07:24:26;;;;;;;30.27;12.77;;;6.60;99.90;;;;;;4177347;28;20021;-66
2023/01/19 07:26:27;;;;;;;23.27;12.70;;;6.60;99.90;;;;;;4160752;28;20083;-65
2023/01/19 07:28:29;;;;;;;20.03;10.23;;;6.60;99.90;;;;;;4160151;28;20041;-65
2023/01/19 07:30:31;;;;;;;11.80;6.97;;;6.60;99.90;;;;;;4160347;28;20049;-65
2023/01/19 07:32:32;;;;;;;21.53;8.73;;;6.60;99.90;;;;;;4160714;28;20021;-65
2023/01/19 07:34:33;;;;;;;14.67;7.40;;;6.60;99.90;;;;;;4160596;28;20449;-65
2023/01/19 07:36:34;;;;;;;15.17;8.53;;;6.70;99.90;;;;;;4161383;28;20033;-65
2023/01/19 07:38:36;;;;;;;14.97;8.03;;;6.80;99.90;;;;;;4160340;28;20030;-65
2023/01/19 07:40:37;;;;;;;12.23;7.57;;;6.80;99.90;;;;;;4161370;28;20029;-65
2023/01/19 07:42:38;;;;;;;12.10;6.37;;;6.90;99.90;;;;;;4160068;28;20074;-65
2023/01/19 07:44:39;;;;;;;12.57;6.97;;;7.00;99.90;;;;;;4161328;28;20045;-65
2023/01/19 07:46:42;;;;;;;10.70;6.70;;;7.10;99.90;;;;;;4159119;28;20099;-64
2023/01/19 07:48:43;;;;;;;10.80;5.43;;;7.10;99.90;;;;;;4160566;28;20037;-65
2023/01/19 07:50:44;;;;;;;12.60;7.00;;;7.20;99.90;;;;;;4159975;28;20076;-65
2023/01/19 07:52:46;;;;;;;18.30;10.37;;;7.40;99.90;;;;;;4143667;28;20037;-67
2023/01/19 07:54:49;;;;;;;21.03;13.13;;;7.60;99.90;;;;;;4159423;28;20498;-65
2023/01/19 07:56:53;;;;;;;21.37;13.17;;;7.90;99.90;;;;;;4161108;28;20022;-64
2023/01/19 07:58:55;;;;;;;16.30;10.23;;;8.20;99.90;;;;;;4158810;28;20021;-65
2023/01/19 08:00:56;;;;;;;11.00;6.07;;;8.30;99.90;;;;;;4158451;28;20063;-70
2023/01/19 08:02:59;;;;;;;12.77;6.00;;;8.50;99.90;;;;;;4160077;28;20427;-64
2023/01/19 08:05:01;;;;;;;7.27;3.33;;;8.60;99.90;;;;;;4160592;28;20029;-66
2023/01/19 08:07:02;;;;;;;6.13;3.87;;;8.60;99.90;;;;;;4160793;28;20025;-69
2023/01/19 08:09:04;;;;;;;11.37;4.47;;;8.70;99.90;;;;;;4160007;28;20650;-68
2023/01/19 08:11:05;;;;;;;9.20;4.17;;;8.70;99.90;;;;;;4161052;28;20030;-67
2023/01/19 08:13:07;;;;;;;11.17;3.60;;;8.60;99.90;;;;;;4159559;28;20079;-69
2023/01/19 08:15:09;;;;;;;9.10;3.53;;;8.60;99.90;;;;;;4161007;28;20034;-68
2023/01/19 08:17:12;;;;;;;5.97;2.50;;;8.50;99.90;;;;;;4160876;28;20033;-67
2023/01/19 08:19:13;;;;;;;5.23;3.13;;;8.50;99.90;;;;;;4161123;28;20021;-63
2023/01/19 08:21:15;;;;;;;5.93;3.33;;;8.50;99.90;;;;;;4159682;28;20094;-65
2023/01/19 08:23:16;;;;;;;14.07;6.97;;;8.50;99.90;;;;;;4160597;28;20037;-73
2023/01/19 08:25:18;;;;;;;20.43;13.03;;;8.50;99.90;;;;;;4159130;28;20091;-62
2023/01/19 08:27:19;;;;;;;26.00;12.70;;;8.40;99.90;;;;;;4159815;28;20037;-63
2023/01/19 08:29:20;;;;;;;25.27;14.27;;;8.40;99.90;;;;;;4157987;28;20421;-63
2023/01/19 08:31:21;;;;;;;25.50;14.80;;;8.40;99.90;;;;;;4158472;28;20095;-65
2023/01/19 08:33:24;;;;;;;18.90;11.17;;;8.40;99.90;;;;;;4156422;28;20045;-62
2023/01/19 08:35:25;;;;;;;21.00;12.60;;;8.40;99.90;;;;;;4159545;28;20108;-68
2023/01/19 08:37:26;;;;;;;16.00;10.40;;;8.40;99.90;;;;;;4159527;28;20021;-62
2023/01/19 08:39:27;;;;;;;20.43;12.83;;;8.40;99.90;;;;;;4140951;28;20042;-63
2023/01/19 08:41:28;;;;;;;23.03;10.77;;;8.40;99.90;;;;;;4162531;28;20025;-63
2023/01/19 08:43:29;;;;;;;19.23;10.73;;;8.50;99.90;;;;;;4161953;28;20104;-63
2023/01/19 08:45:31;;;;;;;23.70;12.87;;;8.50;99.90;;;;;;4162003;28;20030;-62
2023/01/19 08:47:32;;;;;;;24.33;13.07;;;8.60;99.90;;;;;;4162503;28;20056;-63
2023/01/19 08:49:34;;;;;;;25.87;15.10;;;8.60;99.90;;;;;;4162315;28;20455;-62
2023/01/19 08:51:35;;;;;;;29.80;16.50;;;8.70;99.90;;;;;;4158678;28;20465;-63
2023/01/19 08:53:37;;;;;;;26.07;14.73;;;8.70;99.90;;;;;;4144367;28;20080;-60
2023/01/19 08:55:38;;;;;;;24.47;15.10;;;8.70;99.90;;;;;;4158102;28;20033;-62
2023/01/19 08:57:39;;;;;;;25.83;13.03;;;8.80;99.90;;;;;;4160526;28;20075;-63
2023/01/19 08:59:41;;;;;;;25.47;12.50;;;8.70;99.90;;;;;;4161433;28;20025;-63
2023/01/19 09:01:42;;;;;;;20.43;10.30;;;8.80;99.90;;;;;;4161375;28;20416;-64
2023/01/19 09:03:43;;;;;;;28.17;13.40;;;8.80;99.90;;;;;;4146281;28;20072;-64
2023/01/19 09:05:44;;;;;;;15.73;10.93;;;8.90;99.90;;;;;;4146634;28;20536;-64
2023/01/19 09:07:46;;;;;;;18.27;10.37;;;9.00;99.90;;;;;;4147060;28;20034;-63
2023/01/19 09:09:48;;;;;;;20.10;12.37;;;9.00;99.90;;;;;;4173940;28;20110;-65
2023/01/19 09:11:49;;;;;;;25.77;15.10;;;9.00;99.90;;;;;;4166563;28;20029;-67
2023/01/19 09:13:50;;;;;;;22.77;15.30;;;9.10;99.90;;;;;;4177715;28;20029;-64
2023/01/19 09:15:52;;;;;;;20.33;12.13;;;9.20;99.90;;;;;;4160423;28;20456;-64
2023/01/19 09:17:53;;;;;;;22.33;12.43;;;9.40;99.90;;;;;;4158872;28;20033;-66
2023/01/19 09:19:54;;;;;;;16.67;10.07;;;9.40;99.90;;;;;;4163848;28;20572;-67
2023/01/19 09:21:57;;;;;;;13.83;5.53;;;9.60;99.90;;;;;;4162119;28;20021;-69
2023/01/19 09:23:59;;;;;;;13.83;4.37;;;9.80;99.90;;;;;;4163655;28;20073;-66
2023/01/19 09:26:02;;;;;;;11.53;3.70;;;9.90;99.90;;;;;;4162264;28;20421;-68
2023/01/19 09:28:06;;;;;;;11.70;4.40;;;9.90;99.90;;;;;;4162773;28;20025;-68
2023/01/19 09:30:10;;;;;;;9.40;3.40;;;10.00;99.90;;;;;;4161454;28;20553;-66
2023/01/19 09:32:11;;;;;;;9.27;3.47;;;10.00;99.90;;;;;;4161845;28;20500;-67
2023/01/19 09:34:12;;;;;;;16.87;6.10;;;10.00;99.90;;;;;;4161873;28;20469;-68
2023/01/19 09:36:13;;;;;;;5.33;2.80;;;10.10;99.90;;;;;;4162039;28;20092;-65
2023/01/19 09:38:15;;;;;;;5.60;2.63;;;10.10;99.90;;;;;;4162262;28;20025;-67
2023/01/19 09:40:19;;;;;;;5.40;2.50;;;10.20;99.90;;;;;;4161862;28;20037;-66
2023/01/19 09:42:38;;;;;;;6.87;2.27;;;10.20;99.90;;;;;;4162187;28;20034;-68
2023/01/19 09:44:40;;;;;;;5.83;2.37;;;10.20;99.90;;;;;;4161715;28;20425;-64
2023/01/19 09:46:41;;;;;;;3.87;2.00;;;10.20;99.90;;;;;;4161886;28;20442;-66
2023/01/19 09:48:51;;;;;;;9.43;2.00;;;10.30;99.90;;;;;;4161829;28;20548;-65
2023/01/19 09:50:56;;;;;;;10.20;2.00;;;10.20;99.90;;;;;;4162397;28;20030;-61
2023/01/19 09:53:32;;;;;;;7.63;2.23;;;10.20;99.90;;;;;;4160857;28;20440;-62
2023/01/19 09:55:33;;;;;;;11.00;2.47;;;10.20;99.90;;;;;;4161984;28;20060;-65
2023/01/19 09:57:34;;;;;;;13.80;3.43;;;10.30;99.90;;;;;;4161687;28;20029;-62
2023/01/19 09:59:37;;;;;;;8.60;2.37;;;10.30;99.90;;;;;;4161626;28;20461;-64
2023/01/19 10:02:03;;;;;;;6.80;2.77;;;10.40;99.90;;;;;;4161253;28;20107;-62
2023/01/19 10:04:06;;;;;;;16.00;3.60;;;10.40;99.90;;;;;;4162251;28;20102;-65
2023/01/19 10:06:12;;;;;;;14.10;3.03;;;10.50;99.90;;;;;;4168093;28;20460;-63
2023/01/19 10:08:25;;;;;;;13.17;2.77;;;10.40;99.90;;;;;;4178926;28;20071;-64
2023/01/19 10:10:29;;;;;;;7.33;2.73;;;10.40;99.90;;;;;;4178217;28;20037;-64
2023/01/19 10:12:46;;;;;;;12.60;3.10;;;10.30;99.90;;;;;;4178471;28;20792;-66
2023/01/19 10:14:57;;;;;;;10.00;3.33;;;10.20;99.90;;;;;;4177977;28;20028;-68
2023/01/19 10:17:30;;;;;;;8.70;3.17;;;10.20;99.90;;;;;;4177806;28;20037;-63
2023/01/19 10:19:40;;;;;;;14.13;3.60;;;10.10;99.90;;;;;;4177723;28;20538;-63
2023/01/19 10:21:44;;;;;;;15.00;3.78;;;9.90;99.90;;;;;;4178353;28;20374;-62
2023/01/19 10:23:51;;;;;;;9.43;3.40;;;9.90;99.90;;;;;;4178783;28;20094;-62
2023/01/19 10:25:53;;;;;;;6.67;3.03;;;9.80;99.90;;;;;;4178508;28;20534;-62
2023/01/19 10:27:55;;;;;;;5.20;2.63;;;9.80;99.90;;;;;;4173026;28;20098;-64
2023/01/19 10:29:57;;;;;;;10.37;3.13;;;9.90;99.90;;;;;;4161786;28;20033;-67
2023/01/19 10:32:12;;;;;;;13.20;4.13;;;9.90;99.90;;;;;;4160764;28;20080;-62
2023/01/19 10:34:17;;;;;;;7.17;3.13;;;10.00;99.90;;;;;;4161282;28;20033;-65
2023/01/19 10:36:24;;;;;;;15.87;4.23;;;10.00;99.90;;;;;;4157869;28;20445;-62
2023/01/19 10:38:27;;;;;;;8.23;3.47;;;10.10;99.90;;;;;;4161563;28;20152;-62
2023/01/19 10:40:50;;;;;;;9.30;3.90;;;10.20;99.90;;;;;;4175499;28;20075;-62
2023/01/19 10:42:51;;;;;;;9.90;3.90;;;10.30;99.90;;;;;;4161111;28;20147;-62
2023/01/19 10:44:53;;;;;;;13.67;3.37;;;10.40;99.90;;;;;;4161189;28;20099;-63
2023/01/19 10:46:57;;;;;;;16.73;3.20;;;10.50;99.90;;;;;;4162103;28;20033;-62
2023/01/19 10:48:59;;;;;;;7.33;2.30;;;10.60;99.90;;;;;;4160444;28;20029;-69
2023/01/19 10:51:04;;;;;;;10.07;3.63;;;10.60;99.90;;;;;;4162629;28;20088;-64
2023/01/19 10:53:21;;;;;;;12.10;3.77;;;10.50;99.90;;;;;;4160995;28;20091;-62
2023/01/19 10:55:24;;;;;;;15.53;3.33;;;10.60;99.90;;;;;;4162073;28;20472;-67